createdAt,value
2018-02-04T00:00:52.030Z,0.81
2018-02-04T00:03:19.485Z,0.78
2018-02-04T00:05:46.957Z,0.78
2018-02-04T00:08:14.448Z,0.82
2018-02-04T00:10:41.937Z,0.81
2018-02-04T00:13:09.701Z,0.77
2018-02-04T00:15:37.169Z,0.76
2018-02-04T00:18:04.661Z,0.78
2018-02-04T00:20:32.163Z,0.82
2018-02-04T00:22:59.628Z,0.80
2018-02-04T00:25:27.087Z,0.80
2018-02-04T00:27:54.624Z,0.76
2018-02-04T00:30:22.139Z,0.78
2018-02-04T00:32:49.620Z,0.78
2018-02-04T00:35:17.083Z,0.79
2018-02-04T00:37:44.543Z,0.77
2018-02-04T00:40:12.010Z,0.81
2018-02-04T00:42:39.561Z,0.83
2018-02-04T00:45:07.143Z,0.78
2018-02-04T00:47:34.614Z,0.80
2018-02-04T00:50:02.162Z,0.83
2018-02-04T00:52:29.629Z,0.85
2018-02-04T00:54:57.130Z,0.90
2018-02-04T00:57:24.669Z,0.93
2018-02-04T00:59:52.134Z,0.89
2018-02-04T01:02:19.601Z,0.86
2018-02-04T01:04:47.066Z,0.84
2018-02-04T01:07:14.551Z,0.87
2018-02-04T01:09:42.032Z,0.90
2018-02-04T01:12:09.496Z,0.93
2018-02-04T01:14:36.980Z,1.03
2018-02-04T01:17:04.453Z,1.02
2018-02-04T01:19:32.069Z,0.97
2018-02-04T01:21:59.619Z,0.95
2018-02-04T01:24:27.117Z,0.93
2018-02-04T01:26:54.606Z,0.87
2018-02-04T01:29:22.094Z,0.89
2018-02-04T01:31:49.592Z,0.98
2018-02-04T01:34:17.238Z,1.04
2018-02-04T01:36:44.740Z,1.13
2018-02-04T01:39:12.337Z,1.19
2018-02-04T01:41:39.884Z,1.23
2018-02-04T01:44:07.350Z,1.31
2018-02-04T01:46:34.921Z,1.30
2018-02-04T01:49:02.548Z,1.28
2018-02-04T01:51:30.053Z,1.45
2018-02-04T01:53:57.574Z,1.48
2018-02-04T01:56:25.096Z,1.43
2018-02-04T01:58:52.772Z,1.46
2018-02-04T02:01:20.340Z,1.56
2018-02-04T02:03:47.809Z,1.44
2018-02-04T02:06:15.280Z,1.44
2018-02-04T02:08:42.740Z,1.35
2018-02-04T02:11:10.188Z,1.37
2018-02-04T02:13:37.651Z,1.27
2018-02-04T02:16:05.174Z,1.29
2018-02-04T02:18:32.744Z,1.26
2018-02-04T02:21:00.192Z,1.16
2018-02-04T02:23:27.792Z,1.13
2018-02-04T02:25:55.244Z,1.13
2018-02-04T02:28:22.687Z,1.10
2018-02-04T02:30:50.161Z,1.04
2018-02-04T02:33:17.624Z,0.98
2018-02-04T02:35:45.175Z,0.91
2018-02-04T02:38:12.640Z,0.92
2018-02-04T02:40:40.108Z,0.94
2018-02-04T02:43:07.581Z,0.90
2018-02-04T02:45:35.068Z,0.88
2018-02-04T02:48:02.635Z,0.86
2018-02-04T02:50:30.100Z,0.92
2018-02-04T02:52:57.586Z,0.95
2018-02-04T02:55:25.054Z,0.94
2018-02-04T02:57:52.533Z,0.93
2018-02-04T03:00:20.001Z,0.94
2018-02-04T03:02:47.517Z,0.98
2018-02-04T03:05:14.968Z,0.97
2018-02-04T03:07:42.444Z,0.98
2018-02-04T03:10:09.937Z,0.91
2018-02-04T03:12:37.432Z,0.96
2018-02-04T03:15:04.928Z,0.96
2018-02-04T03:17:32.380Z,1.02
2018-02-04T03:19:59.858Z,1.02
2018-02-04T03:22:27.319Z,0.96
2018-02-04T03:24:54.794Z,0.92
2018-02-04T03:27:22.271Z,0.88
2018-02-04T03:29:49.727Z,0.87
2018-02-04T03:32:17.204Z,0.84
2018-02-04T03:34:44.669Z,0.91
2018-02-04T03:37:12.121Z,0.99
2018-02-04T03:39:39.611Z,0.96
2018-02-04T03:42:07.173Z,0.96
2018-02-04T03:44:34.663Z,0.86
2018-02-04T03:47:02.125Z,0.86
2018-02-04T03:49:29.584Z,0.80
2018-02-04T03:51:57.052Z,0.81
2018-02-04T03:54:24.512Z,0.83
2018-02-04T03:56:52.079Z,0.89
2018-02-04T03:59:19.555Z,0.83
2018-02-04T04:01:47.114Z,0.85
2018-02-04T04:04:14.846Z,0.79
2018-02-04T04:06:42.346Z,0.86
2018-02-04T04:09:09.806Z,0.83
2018-02-04T04:11:37.264Z,0.84
2018-02-04T04:14:04.724Z,0.89
2018-02-04T04:16:32.187Z,0.92
2018-02-04T04:18:59.659Z,0.88
2018-02-04T04:21:27.116Z,0.87
2018-02-04T04:23:54.633Z,0.88
2018-02-04T04:26:22.089Z,0.87
2018-02-04T04:28:49.580Z,0.83
2018-02-04T04:31:17.041Z,0.87
2018-02-04T04:33:44.535Z,0.88
2018-02-04T04:36:12.024Z,0.81
2018-02-04T04:38:39.480Z,0.79
2018-02-04T04:41:06.965Z,0.78
2018-02-04T04:43:34.431Z,0.80
2018-02-04T04:46:02.016Z,0.80
2018-02-04T04:48:29.616Z,0.86
2018-02-04T04:50:57.170Z,0.91
2018-02-04T04:53:24.727Z,0.90
2018-02-04T04:55:52.487Z,0.92
2018-02-04T04:58:19.965Z,0.93
2018-02-04T05:00:47.550Z,0.87
2018-02-04T05:03:15.043Z,0.76
2018-02-04T05:05:42.592Z,0.67
2018-02-04T05:08:10.193Z,0.76
2018-02-04T05:10:37.645Z,0.82
2018-02-04T05:13:05.130Z,0.89
2018-02-04T05:15:32.681Z,0.86
2018-02-04T05:18:00.249Z,0.88
2018-02-04T05:20:27.702Z,0.91
2018-02-04T05:22:55.399Z,0.93
2018-02-04T05:25:22.865Z,0.89
2018-02-04T05:27:50.328Z,0.83
2018-02-04T05:30:17.786Z,0.79
2018-02-04T05:32:45.228Z,0.81
2018-02-04T05:35:12.747Z,0.78
2018-02-04T05:37:40.219Z,0.78
2018-02-04T05:40:07.795Z,0.81
2018-02-04T05:42:35.475Z,0.76
2018-02-04T05:45:02.995Z,0.78
2018-02-04T05:47:30.451Z,0.81
2018-02-04T05:49:57.906Z,0.84
2018-02-04T05:52:25.443Z,0.83
2018-02-04T05:54:52.897Z,0.81
2018-02-04T05:57:20.364Z,0.77
2018-02-04T05:59:47.824Z,0.76
2018-02-04T06:02:15.340Z,0.80
2018-02-04T06:04:42.907Z,0.81
2018-02-04T06:07:10.483Z,0.70
2018-02-04T06:09:38.044Z,0.72
2018-02-04T06:12:05.492Z,0.71
2018-02-04T06:14:32.953Z,0.76
2018-02-04T06:17:00.466Z,0.80
2018-02-04T06:19:27.947Z,0.83
2018-02-04T06:21:55.408Z,0.84
2018-02-04T06:24:25.380Z,0.87
2018-02-04T06:26:52.985Z,0.83
2018-02-04T06:29:20.464Z,0.81
2018-02-04T06:31:47.918Z,0.85
2018-02-04T06:34:15.425Z,0.86
2018-02-04T06:36:42.870Z,0.89
2018-02-04T06:39:10.340Z,0.88
2018-02-04T06:41:37.796Z,0.87
2018-02-04T06:44:05.281Z,0.91
2018-02-04T06:46:32.780Z,0.90
2018-02-04T06:49:00.260Z,0.95
2018-02-04T06:51:27.829Z,0.89
2018-02-04T06:53:55.400Z,0.97
2018-02-04T06:56:22.911Z,0.99
2018-02-04T06:58:50.367Z,1.01
2018-02-04T07:01:17.874Z,1.01
2018-02-04T07:03:45.339Z,0.97
2018-02-04T07:06:12.832Z,0.98
2018-02-04T07:08:40.299Z,0.98
2018-02-04T07:11:07.793Z,1.00
2018-02-04T07:13:35.377Z,0.96
2018-02-04T07:16:02.824Z,1.00
2018-02-04T07:18:30.285Z,1.00
2018-02-04T07:20:57.750Z,0.97
2018-02-04T07:23:25.220Z,1.03
2018-02-04T07:25:52.676Z,1.09
2018-02-04T07:28:20.159Z,1.12
2018-02-04T07:30:47.619Z,1.14
2018-02-04T07:33:15.091Z,1.18
2018-02-04T07:35:42.560Z,1.21
2018-02-04T07:38:10.027Z,1.22
2018-02-04T07:40:37.490Z,1.23
2018-02-04T07:43:04.964Z,1.24
2018-02-04T07:45:32.454Z,1.23
2018-02-04T07:47:59.919Z,1.25
2018-02-04T07:50:27.422Z,1.19
2018-02-04T07:52:54.896Z,1.20
2018-02-04T07:55:22.366Z,1.18
2018-02-04T07:57:49.840Z,1.25
2018-02-04T08:00:17.411Z,1.31
2018-02-04T08:02:44.877Z,1.28
2018-02-04T08:05:12.367Z,1.30
2018-02-04T08:07:39.839Z,1.34
2018-02-04T08:10:07.406Z,1.29
2018-02-04T08:12:34.894Z,1.23
2018-02-04T08:15:02.378Z,1.24
2018-02-04T08:17:29.836Z,1.23
2018-02-04T08:19:57.328Z,1.19
2018-02-04T08:22:24.796Z,1.18
2018-02-04T08:24:52.318Z,1.16
2018-02-04T08:27:19.809Z,1.18
2018-02-04T08:29:47.394Z,1.19
2018-02-04T08:32:14.889Z,1.18
2018-02-04T08:34:42.375Z,1.17
2018-02-04T08:37:09.851Z,1.15
2018-02-04T08:39:37.316Z,1.18
2018-02-04T08:42:04.782Z,1.18
2018-02-04T08:44:32.241Z,1.18
2018-02-04T08:46:59.738Z,1.19
2018-02-04T08:49:27.240Z,1.23
2018-02-04T08:51:54.800Z,1.22
2018-02-04T08:54:22.278Z,1.28
2018-02-04T08:56:49.806Z,1.25
2018-02-04T08:59:17.271Z,1.31
2018-02-04T09:01:44.744Z,1.30
2018-02-04T09:04:12.210Z,1.32
2018-02-04T09:06:39.663Z,1.31
2018-02-04T09:09:07.197Z,1.30
2018-02-04T09:11:34.669Z,1.30
2018-02-04T09:14:02.236Z,1.29
2018-02-04T09:16:29.696Z,1.32
2018-02-04T09:18:57.285Z,1.35
2018-02-04T09:21:24.740Z,1.32
2018-02-04T09:23:52.209Z,1.31
2018-02-04T09:26:19.684Z,1.13
2018-02-04T09:28:47.144Z,0.97
2018-02-04T09:31:14.636Z,1.03
2018-02-04T09:33:42.089Z,0.96
2018-02-04T09:36:09.578Z,0.85
2018-02-04T09:38:37.028Z,0.85
2018-02-04T09:41:04.625Z,0.87
2018-02-04T09:43:32.095Z,0.73
2018-02-04T09:45:59.552Z,0.80
2018-02-04T09:48:27.031Z,0.74
2018-02-04T09:50:54.488Z,0.78
2018-02-04T09:53:21.985Z,0.76
2018-02-04T09:55:49.456Z,0.84
2018-02-04T09:58:16.971Z,0.86
2018-02-04T10:00:44.431Z,0.90
2018-02-04T10:03:11.967Z,0.87
2018-02-04T10:05:39.432Z,0.99
2018-02-04T10:08:06.918Z,1.08
2018-02-04T10:10:34.403Z,1.25
2018-02-04T10:13:01.865Z,1.28
2018-02-04T10:15:29.333Z,1.37
2018-02-04T10:17:56.826Z,1.48
2018-02-04T10:20:24.301Z,1.48
2018-02-04T10:22:51.881Z,1.46
2018-02-04T10:25:19.365Z,1.44
2018-02-04T10:27:46.819Z,1.38
2018-02-04T10:30:14.294Z,1.54
2018-02-04T10:32:41.791Z,1.61
2018-02-04T10:35:09.590Z,1.79
2018-02-04T10:37:37.165Z,2.07
2018-02-04T10:40:04.637Z,2.16
2018-02-04T10:42:32.120Z,2.22
2018-02-04T10:44:59.597Z,2.27
2018-02-04T10:47:27.060Z,2.48
2018-02-04T10:49:54.528Z,2.43
2018-02-04T10:52:22.043Z,2.53
2018-02-04T10:54:49.505Z,2.35
2018-02-04T10:57:16.980Z,2.35
2018-02-04T10:59:44.477Z,2.25
2018-02-04T11:02:11.967Z,2.17
2018-02-04T11:04:39.437Z,2.31
2018-02-04T11:07:06.979Z,2.28
2018-02-04T11:09:34.454Z,2.11
2018-02-04T11:12:01.926Z,1.94
2018-02-04T11:14:29.401Z,1.98
2018-02-04T11:16:56.861Z,2.09
2018-02-04T11:19:24.388Z,2.11
2018-02-04T11:21:51.820Z,2.13
2018-02-04T11:24:19.290Z,2.04
2018-02-04T11:26:46.747Z,2.06
2018-02-04T11:29:14.226Z,1.95
2018-02-04T11:31:41.708Z,1.97
2018-02-04T11:34:09.215Z,1.99
2018-02-04T11:36:36.682Z,1.97
2018-02-04T11:39:04.175Z,2.13
2018-02-04T11:41:31.684Z,2.21
2018-02-04T11:43:59.175Z,2.22
2018-02-04T11:46:26.639Z,2.21
2018-02-04T11:48:54.092Z,2.04
2018-02-04T11:51:21.564Z,2.05
2018-02-04T11:53:49.043Z,2.01
2018-02-04T11:56:16.584Z,2.14
2018-02-04T11:58:44.053Z,2.02
2018-02-04T12:01:11.528Z,2.00
2018-02-04T12:03:39.000Z,2.09
2018-02-04T12:06:06.492Z,2.07
2018-02-04T12:08:34.062Z,2.20
2018-02-04T12:11:02.050Z,2.27
2018-02-04T12:13:29.623Z,2.39
2018-02-04T12:15:57.114Z,2.43
2018-02-04T12:18:24.712Z,2.39
2018-02-04T12:20:52.222Z,2.39
2018-02-04T12:23:19.798Z,2.39
2018-02-04T12:25:47.380Z,2.40
2018-02-04T12:28:14.953Z,2.53
2018-02-04T12:30:43.395Z,2.50
2018-02-04T12:33:10.970Z,2.58
2018-02-04T12:35:38.486Z,2.60
2018-02-04T12:38:05.992Z,2.80
2018-02-04T12:40:33.538Z,2.79
2018-02-04T12:43:01.059Z,2.73
2018-02-04T12:45:28.559Z,2.88
2018-02-04T12:47:56.039Z,2.82
2018-02-04T12:50:23.541Z,2.92
2018-02-04T12:52:51.278Z,3.27
2018-02-04T12:55:18.759Z,3.51
2018-02-04T12:57:46.229Z,3.26
2018-02-04T13:00:13.989Z,3.27
2018-02-04T13:02:41.432Z,3.21
2018-02-04T13:05:08.901Z,3.11
2018-02-04T13:07:36.446Z,3.12
2018-02-04T13:10:03.914Z,3.12
2018-02-04T13:12:31.452Z,3.12
2018-02-04T13:14:58.916Z,3.03
2018-02-04T13:17:26.492Z,2.89
2018-02-04T13:19:54.001Z,2.70
2018-02-04T13:22:21.472Z,2.64
2018-02-04T13:24:48.937Z,2.50
2018-02-04T13:27:16.424Z,2.54
2018-02-04T13:29:43.883Z,2.44
2018-02-04T13:32:11.355Z,2.39
2018-02-04T13:34:38.832Z,2.30
2018-02-04T13:37:07.337Z,2.21
2018-02-04T13:39:34.847Z,2.12
2018-02-04T13:42:02.308Z,2.07
2018-02-04T13:44:29.774Z,1.98
2018-02-04T13:46:57.232Z,2.04
2018-02-04T13:49:24.704Z,1.95
2018-02-04T13:51:52.156Z,1.95
2018-02-04T13:54:19.862Z,1.79
2018-02-04T13:56:47.338Z,1.81
2018-02-04T13:59:14.789Z,1.92
2018-02-04T14:01:42.256Z,2.00
2018-02-04T14:04:09.742Z,1.88
2018-02-04T14:06:37.229Z,1.92
2018-02-04T14:09:04.682Z,1.77
2018-02-04T14:11:32.165Z,1.87
2018-02-04T14:13:59.624Z,1.93
2018-02-04T14:16:27.103Z,1.81
2018-02-04T14:18:54.553Z,1.75
2018-02-04T14:21:22.112Z,1.66
2018-02-04T14:23:49.603Z,1.66
2018-02-04T14:26:17.073Z,1.68
2018-02-04T14:28:44.562Z,1.69
2018-02-04T14:31:12.039Z,1.67
2018-02-04T14:33:39.565Z,1.63
2018-02-04T14:36:07.060Z,1.60
2018-02-04T14:38:34.559Z,1.66
2018-02-04T14:41:02.037Z,1.64
2018-02-04T14:43:29.514Z,1.62
2018-02-04T14:45:56.968Z,1.55
2018-02-04T14:48:24.459Z,1.64
2018-02-04T14:50:51.928Z,1.56
2018-02-04T14:53:19.398Z,1.57
2018-02-04T14:55:46.883Z,1.44
2018-02-04T14:58:14.344Z,1.42
2018-02-04T15:00:41.813Z,1.33
2018-02-04T15:03:09.292Z,1.20
2018-02-04T15:05:36.781Z,1.23
2018-02-04T15:08:04.239Z,1.18
2018-02-04T15:10:31.718Z,1.11
2018-02-04T15:12:59.181Z,1.05
2018-02-04T15:15:26.677Z,1.14
2018-02-04T15:17:54.136Z,1.21
2018-02-04T15:20:21.614Z,1.18
2018-02-04T15:22:49.140Z,1.17
2018-02-04T15:25:16.584Z,1.10
2018-02-04T15:27:44.056Z,0.99
2018-02-04T15:30:11.525Z,0.93
2018-02-04T15:32:39.010Z,1.00
2018-02-04T15:35:06.466Z,0.99
2018-02-04T15:37:33.964Z,1.03
2018-02-04T15:40:01.438Z,0.99
2018-02-04T15:42:28.906Z,0.99
2018-02-04T15:44:56.416Z,0.91
2018-02-04T15:47:23.877Z,0.92
2018-02-04T15:49:51.342Z,0.87
2018-02-04T15:52:18.872Z,0.78
2018-02-04T15:54:46.353Z,0.75
2018-02-04T15:57:14.152Z,0.73
2018-02-04T15:59:41.621Z,0.81
2018-02-04T16:02:09.077Z,0.78
2018-02-04T16:04:36.726Z,0.78
2018-02-04T16:07:04.254Z,0.77
2018-02-04T16:09:31.720Z,0.70
2018-02-04T16:11:59.658Z,0.67
2018-02-04T16:14:27.130Z,0.55
2018-02-04T16:16:54.651Z,0.45
2018-02-04T16:19:22.168Z,0.32
2018-02-04T16:21:49.651Z,0.26
2018-02-04T16:24:17.503Z,0.21
2018-02-04T16:26:45.012Z,0.16
2018-02-04T16:29:12.478Z,0.13
2018-02-04T16:31:39.976Z,0.08
2018-02-04T16:34:07.450Z,0.04
2018-02-04T16:36:34.931Z,0.02
2018-02-04T16:39:02.408Z,-0.01
2018-02-04T16:41:29.989Z,-0.01
2018-02-04T16:43:57.564Z,-0.02
2018-02-04T16:46:25.029Z,-0.07
2018-02-04T16:48:52.566Z,-0.12
2018-02-04T16:51:20.038Z,-0.19
2018-02-04T16:53:47.765Z,-0.21
2018-02-04T16:56:15.247Z,-0.29
2018-02-04T16:58:42.702Z,-0.37
2018-02-04T17:01:10.334Z,-0.43
2018-02-04T17:03:37.794Z,-0.44
2018-02-04T17:06:05.272Z,-0.46
2018-02-04T17:08:32.773Z,-0.53
2018-02-04T17:11:00.264Z,-0.57
2018-02-04T17:13:27.876Z,-0.58
2018-02-04T17:15:55.370Z,-0.63
2018-02-04T17:18:22.845Z,-0.70
2018-02-04T17:20:50.346Z,-0.73
2018-02-04T17:23:17.810Z,-0.76
2018-02-04T17:25:45.469Z,-0.80
2018-02-04T17:28:12.970Z,-0.80
2018-02-04T17:30:40.480Z,-0.86
2018-02-04T17:33:07.949Z,-0.87
2018-02-04T17:35:35.504Z,-0.92
2018-02-04T17:38:02.991Z,-0.96
2018-02-04T17:40:30.493Z,-1.01
2018-02-04T17:42:57.966Z,-1.06
2018-02-04T17:45:25.461Z,-1.03
2018-02-04T17:47:52.941Z,-1.14
2018-02-04T17:50:20.458Z,-1.14
2018-02-04T17:52:47.924Z,-1.18
2018-02-04T17:55:15.496Z,-1.22
2018-02-04T17:57:43.046Z,-1.22
2018-02-04T18:00:10.547Z,-1.30
2018-02-04T18:02:38.061Z,-1.30
2018-02-04T18:05:05.664Z,-1.27
2018-02-04T18:07:33.405Z,-1.31
2018-02-04T18:10:01.001Z,-1.36
2018-02-04T18:12:28.508Z,-1.36
2018-02-04T18:14:55.972Z,-1.41
2018-02-04T18:17:23.498Z,-1.41
2018-02-04T18:19:51.038Z,-1.39
2018-02-04T18:22:18.551Z,-1.33
2018-02-04T18:24:46.112Z,-1.36
2018-02-04T18:27:13.663Z,-1.39
2018-02-04T18:29:41.185Z,-1.42
2018-02-04T18:32:08.681Z,-1.49
2018-02-04T18:34:36.178Z,-0.77
2018-02-04T18:37:03.636Z,-0.48
2018-02-04T18:39:31.132Z,-0.61
2018-02-04T18:41:58.632Z,-0.97
2018-02-04T18:44:26.179Z,-1.14
2018-02-04T18:46:53.712Z,-1.29
2018-02-04T18:49:21.260Z,-1.41
2018-02-04T18:51:48.716Z,-1.51
2018-02-04T18:54:16.203Z,-1.53
2018-02-04T18:56:43.762Z,-1.63
2018-02-04T18:59:11.330Z,-1.67
2018-02-04T19:01:38.870Z,-1.74
2018-02-04T19:04:06.341Z,-1.77
2018-02-04T19:06:33.921Z,-1.85
2018-02-04T19:09:01.407Z,-1.85
2018-02-04T19:11:29.019Z,-1.85
2018-02-04T19:13:56.558Z,-1.83
2018-02-04T19:16:24.077Z,-1.88
2018-02-04T19:18:51.564Z,-1.93
2018-02-04T19:21:19.093Z,-1.99
2018-02-04T19:23:46.658Z,-2.01
2018-02-04T19:26:14.124Z,-2.07
2018-02-04T19:28:41.592Z,-2.12
2018-02-04T19:31:09.076Z,-2.07
2018-02-04T19:33:36.574Z,-2.08
2018-02-04T19:36:04.317Z,-2.08
2018-02-04T19:38:32.022Z,-2.14
2018-02-04T19:40:59.552Z,-2.15
2018-02-04T19:43:27.019Z,-2.16
2018-02-04T19:45:54.533Z,-2.24
2018-02-04T19:48:22.155Z,-2.26
2018-02-04T19:50:49.668Z,-2.31
2018-02-04T19:53:17.197Z,-2.35
2018-02-04T19:55:44.724Z,-2.31
2018-02-04T19:58:12.290Z,-2.30
2018-02-04T20:00:39.810Z,-2.32
2018-02-04T20:03:07.511Z,-2.26
2018-02-04T20:05:34.984Z,-2.29
2018-02-04T20:08:02.516Z,-2.36
2018-02-04T20:10:30.065Z,-2.45
2018-02-04T20:12:57.642Z,-2.51
2018-02-04T20:15:25.553Z,-2.57
2018-02-04T20:17:53.072Z,-2.56
2018-02-04T20:20:20.664Z,-2.56
2018-02-04T20:22:48.195Z,-2.60
2018-02-04T20:25:15.702Z,-2.60
2018-02-04T20:27:43.240Z,-2.60
2018-02-04T20:30:10.814Z,-2.67
2018-02-04T20:32:50.153Z,-2.67
2018-02-04T20:35:17.626Z,-2.68
2018-02-04T20:37:45.236Z,-2.71
2018-02-04T20:40:12.763Z,-2.75
2018-02-04T20:42:40.289Z,-2.74
2018-02-04T20:45:07.771Z,-2.74
2018-02-04T20:47:35.252Z,-2.79
2018-02-04T20:50:02.791Z,-2.79
2018-02-04T20:52:30.310Z,-2.81
2018-02-04T20:54:57.850Z,-2.81
2018-02-04T20:57:25.322Z,-2.80
2018-02-04T20:59:52.894Z,-2.81
2018-02-04T21:02:20.381Z,-2.69
2018-02-04T21:04:47.928Z,-2.56
2018-02-04T21:07:15.493Z,-2.43
2018-02-04T21:09:42.969Z,-2.25
2018-02-04T21:12:10.476Z,-2.17
2018-02-04T21:14:38.013Z,-2.14
2018-02-04T21:17:05.521Z,-2.05
2018-02-04T21:19:33.029Z,-1.98
2018-02-04T21:22:00.557Z,-1.92
2018-02-04T21:24:28.525Z,-1.87
2018-02-04T21:26:56.010Z,-1.79
2018-02-04T21:29:23.517Z,-1.74
2018-02-04T21:31:50.998Z,-1.66
2018-02-04T21:34:18.552Z,-1.65
2018-02-04T21:36:46.030Z,-1.63
2018-02-04T21:39:13.554Z,-1.67
2018-02-04T21:41:41.035Z,-1.65
2018-02-04T21:44:08.541Z,-1.66
2018-02-04T21:46:36.016Z,-1.59
2018-02-04T21:49:03.547Z,-1.56
2018-02-04T21:51:31.046Z,-1.60
2018-02-04T21:53:58.756Z,-1.58
2018-02-04T21:56:26.304Z,-1.60
2018-02-04T21:58:53.930Z,-1.63
2018-02-04T22:01:21.452Z,-1.63
2018-02-04T22:03:48.963Z,-1.67
2018-02-04T22:06:16.450Z,-1.69
2018-02-04T22:08:43.942Z,-1.72
2018-02-04T22:11:11.459Z,-1.78
2018-02-04T22:13:39.016Z,-1.82
2018-02-04T22:16:06.492Z,-1.83
2018-02-04T22:18:33.984Z,-1.79
2018-02-04T22:21:01.458Z,-1.80
2018-02-04T22:23:29.079Z,-1.81
2018-02-04T22:25:56.555Z,-1.78
2018-02-04T22:28:24.036Z,-1.87
2018-02-04T22:30:51.508Z,-1.93
2018-02-04T22:33:18.977Z,-1.96
2018-02-04T22:35:46.451Z,-2.04
2018-02-04T22:38:13.908Z,-2.08
2018-02-04T22:40:41.410Z,-2.13
2018-02-04T22:43:09.686Z,-2.20
2018-02-04T22:45:37.309Z,-2.24
2018-02-04T22:48:04.775Z,-2.28
2018-02-04T22:50:32.277Z,-2.31
2018-02-04T22:52:59.745Z,-2.37
2018-02-04T22:55:27.213Z,-2.39
2018-02-04T22:57:54.701Z,-2.41
2018-02-04T23:00:22.181Z,-2.43
2018-02-04T23:02:49.756Z,-2.49
2018-02-04T23:05:17.238Z,-2.49
2018-02-04T23:07:44.790Z,-2.43
2018-02-04T23:10:12.278Z,-2.40
2018-02-04T23:12:39.792Z,-2.39
2018-02-04T23:15:07.264Z,-2.34
2018-02-04T23:17:34.794Z,-2.29
2018-02-04T23:20:02.265Z,-2.17
2018-02-04T23:22:29.826Z,-2.17
2018-02-04T23:24:57.319Z,-2.10
2018-02-04T23:27:24.781Z,-2.00
2018-02-04T23:29:52.432Z,-1.88
2018-02-04T23:32:19.894Z,-1.92
2018-02-04T23:34:47.372Z,-1.77
2018-02-04T23:37:14.852Z,-1.76
2018-02-04T23:39:42.345Z,-1.71
2018-02-04T23:42:09.808Z,-1.71
2018-02-04T23:44:37.276Z,-1.66
2018-02-04T23:47:04.785Z,-1.69
2018-02-04T23:49:32.311Z,-1.66
2018-02-04T23:51:59.805Z,-1.63
2018-02-04T23:54:27.266Z,-1.68
2018-02-04T23:56:54.742Z,-1.64
2018-02-04T23:59:22.235Z,-1.57
